Lowndesboro, Alabama
Current Conditions -  °F | °C
As of 12:53 PM on Tuesday 27 Jan 2015 (Local Time) from KMGM Reporting Station
Clear Clear  
Wind Chill: 61°   Ceiling: Unl
Heat Index: 61°   Visibility: 10mi
Dew Point: 35°   Wind: 15mph
Humidity: 38%   Direction: 340°NNW
Pressure: 30.01"   Gusts: 22mph
Location:  32.28°N, 86.61°W
Report Text: KMGM 271853Z 34013G19KT 10SM CLR 16/02 A3001 RMK AO2 SLP161 T01610017
Loading
Personal Weather Stations






























Interactive Weather Map New forecast layout! Learn more

10-Day Weather Forecast

Advertisements
Track Severe Weather on mobile